Time;durP1;ratioP1;P1;durP2;ratioP2;P2;SDS_P1;SDS_P2;PMS_P1;PMS_P2;Temp;Humidity;BMP_temperature;BMP_pressure;BME280_temperature;BME280_humidity;BME280_pressure;Samples;Min_cycle;Max_cycle;Signal;HPM_P1;HPM_P2
2022/07/30 00:02:38;;;;;;;0.70;0.70;;;;;;;19.45;70.38;100905.25;7398456;19;19999;-51
2022/07/30 00:05:25;;;;;;;1.45;0.50;;;;;;;19.41;71.07;100898.84;7356387;19;20347;-48
2022/07/30 00:07:53;;;;;;;0.45;0.40;;;;;;;19.41;70.63;100898.84;7402542;19;20007;-55
2022/07/30 00:10:21;;;;;;;1.70;0.73;;;;;;;19.40;70.90;100897.25;7404853;19;20012;-51
2022/07/30 00:12:49;;;;;;;1.63;0.47;;;;;;;19.40;71.25;100891.63;7356284;19;22775;-52
2022/07/30 00:15:37;;;;;;;1.88;0.43;;;;;;;19.34;71.11;100890.38;7343837;19;20023;-54
2022/07/30 00:18:05;;;;;;;3.10;0.60;;;;;;;19.31;71.49;100892.00;7346877;19;20014;-56
2022/07/30 00:20:32;;;;;;;0.70;0.70;;;;;;;19.28;71.90;100898.41;7348283;19;20040;-53
2022/07/30 00:23:03;;;;;;;2.40;0.73;;;;;;;19.27;71.70;100898.81;7348293;19;20025;-55
2022/07/30 00:25:30;;;;;;;0.65;0.65;;;;;;;19.26;71.70;100898.00;7348472;19;20388;-53
2022/07/30 00:27:58;;;;;;;0.38;0.38;;;;;;;19.28;71.98;100898.41;7348485;19;20033;-55
2022/07/30 00:30:25;;;;;;;0.57;0.40;;;;;;;19.26;71.93;100889.59;7350254;19;20015;-52
2022/07/30 00:32:53;;;;;;;1.38;0.38;;;;;;;19.26;71.85;100885.97;7347478;19;20020;-52
2022/07/30 00:35:21;;;;;;;1.52;0.70;;;;;;;19.25;72.01;100887.16;7349021;19;20014;-52
2022/07/30 00:37:48;;;;;;;0.68;0.50;;;;;;;19.23;72.32;100890.38;7350256;19;20461;-52
2022/07/30 00:40:16;;;;;;;0.60;0.52;;;;;;;19.20;72.42;100881.94;7347915;19;20043;-52
2022/07/30 00:42:46;;;;;;;0.50;0.43;;;;;;;19.23;72.73;100878.34;7348128;19;20010;-54
2022/07/30 00:45:15;;;;;;;0.43;0.43;;;;;;;19.24;72.47;100882.78;7366079;19;20035;-49
2022/07/30 00:47:44;;;;;;;1.30;0.60;;;;;;;19.25;72.68;100873.13;7400453;19;20011;-49
2022/07/30 00:50:13;;;;;;;0.57;0.40;;;;;;;19.26;72.54;100866.31;7395112;19;20330;-53
2022/07/30 00:52:42;;;;;;;1.38;0.50;;;;;;;19.23;72.80;100859.50;7399317;19;20019;-54
2022/07/30 00:55:13;;;;;;;1.33;0.40;;;;;;;19.22;73.03;100862.72;7396561;19;20010;-49
2022/07/30 00:57:42;;;;;;;1.65;0.60;;;;;;;19.20;72.75;100853.88;7399933;19;20010;-52
2022/07/30 01:00:16;;;;;;;1.85;0.38;;;;;;;19.19;73.14;100860.72;7396607;19;20006;-49
2022/07/30 01:02:44;;;;;;;0.60;0.50;;;;;;;19.19;73.00;100864.34;7399082;19;20029;-51
2022/07/30 01:05:13;;;;;;;0.88;0.38;;;;;;;19.16;73.47;100867.94;7398440;19;20014;-48
2022/07/30 01:07:41;;;;;;;2.45;0.60;;;;;;;19.12;73.91;100869.94;7397079;19;20015;-51
2022/07/30 01:10:15;;;;;;;1.38;0.50;;;;;;;19.08;74.01;100862.72;7374658;19;20085;-55
2022/07/30 01:12:44;;;;;;;3.30;0.60;;;;;;;19.06;74.16;100865.91;7353436;19;20405;-52
2022/07/30 01:15:13;;;;;;;1.08;0.38;;;;;;;19.09;73.93;100864.34;7396206;19;20011;-49
2022/07/30 01:17:41;;;;;;;0.68;0.47;;;;;;;19.07;74.20;100861.09;7397293;19;20352;-51
2022/07/30 01:20:14;;;;;;;0.90;0.40;;;;;;;19.03;74.54;100863.13;7398348;19;20035;-48
2022/07/30 01:23:07;;;;;;;0.68;0.50;;;;;;;19.04;74.27;100854.28;7398260;19;20537;-48
2022/07/30 01:25:51;;;;;;;1.23;0.43;;;;;;;19.01;74.94;100854.31;7397844;19;19998;-51
2022/07/30 01:28:26;;;;;;;1.20;0.75;;;;;;;19.00;74.53;100859.09;7398487;19;20014;-48
2022/07/30 01:31:16;;;;;;;0.85;0.50;;;;;;;19.01;74.40;100857.09;7395795;19;19998;-50
2022/07/30 01:34:05;;;;;;;2.05;0.68;;;;;;;19.04;75.06;100856.28;7399235;19;20017;-48
2022/07/30 01:36:57;;;;;;;0.93;0.73;;;;;;;19.02;75.04;100856.69;7395950;19;20014;-47
2022/07/30 01:39:46;;;;;;;0.80;0.68;;;;;;;18.97;75.17;100856.28;7399428;19;20334;-72
2022/07/30 01:42:36;;;;;;;1.27;0.70;;;;;;;18.92;75.67;100848.28;7396288;19;20469;-53
2022/07/30 01:45:27;;;;;;;1.05;0.80;;;;;;;18.90;76.28;100856.28;7394336;19;20358;-49
2022/07/30 01:48:19;;;;;;;2.15;0.90;;;;;;;18.84;76.54;100853.88;7270955;19;2921126;-53
2022/07/30 01:51:11;;;;;;;1.33;1.02;;;;;;;18.81;76.84;100856.66;7345643;19;20022;-52
2022/07/30 01:53:44;;;;;;;1.23;0.90;;;;;;;18.81;76.80;100851.06;7344245;19;20017;-55
2022/07/30 01:56:14;;;;;;;0.90;0.90;;;;;;;18.77;76.83;100853.84;7339887;19;20010;-54
2022/07/30 01:58:48;;;;;;;2.13;1.85;;;;;;;18.74;77.40;100857.44;7343505;19;20010;-56
2022/07/30 02:01:20;;;;;;;1.30;1.30;;;;;;;18.73;77.61;100857.84;7345077;19;20105;-54
2022/07/30 02:03:48;;;;;;;1.30;1.20;;;;;;;18.73;77.73;100860.66;7351513;19;20018;-50
2022/07/30 02:06:22;;;;;;;1.33;1.20;;;;;;;18.72;79.08;100859.03;7398756;19;20019;-50
2022/07/30 02:09:00;;;;;;;2.40;0.98;;;;;;;18.71;78.35;100857.47;7399766;19;20018;-50
2022/07/30 02:14:37;;;;;;;3.03;1.40;;;;;;;18.65;78.95;100861.84;7393314;19;20018;-49
2022/07/30 02:17:07;;;;;;;2.50;1.23;;;;;;;18.56;78.62;100862.22;7394967;19;20022;-53
2022/07/30 02:19:50;;;;;;;1.75;1.10;;;;;;;18.58;79.01;100875.84;7378627;19;20368;-53
2022/07/30 02:22:21;;;;;;;3.58;1.23;;;;;;;18.58;79.25;100859.84;7340668;19;20400;-51
2022/07/30 02:25:16;;;;;;;3.80;1.80;;;;;;;18.54;79.09;100861.81;7345194;19;20018;-55
2022/07/30 02:28:08;;;;;;;1.83;1.10;;;;;;;18.52;79.46;100869.03;7343130;19;20057;-52
2022/07/30 02:30:58;;;;;;;;;;;;;;;18.46;80.60;100848.13;7399139;19;20006;-50
2022/07/30 02:33:49;;;;;;;1.35;1.10;;;;;;;18.44;79.18;100851.34;7396969;19;19915;-47
2022/07/30 02:36:40;;;;;;;2.40;1.08;;;;;;;18.43;79.85;100857.34;7386883;19;20033;-49
2022/07/30 02:39:09;;;;;;;1.40;1.30;;;;;;;18.41;79.72;100851.31;7391191;19;20094;-52
2022/07/30 02:41:38;;;;;;;3.17;1.45;;;;;;;18.37;80.16;100851.34;7344553;19;20057;-54
2022/07/30 02:44:08;;;;;;;1.55;1.30;;;;;;;18.32;80.65;100850.91;7340450;19;20006;-55
2022/07/30 02:46:41;;;;;;;1.40;1.30;;;;;;;18.34;80.71;100852.13;7390832;19;20018;-48
2022/07/30 02:49:53;;;;;;;1.17;1.10;;;;;;;18.34;80.44;100852.13;7395897;19;20025;-52
2022/07/30 02:52:42;;;;;;;2.53;1.10;;;;;;;18.34;80.74;100849.31;7373975;19;20404;-53
2022/07/30 02:55:12;;;;;;;1.08;1.00;;;;;;;18.34;80.78;100846.50;7343860;19;20014;-52
2022/07/30 02:57:41;;;;;;;2.17;0.90;;;;;;;18.30;81.17;100850.47;7343513;19;20130;-52
2022/07/30 03:00:15;;;;;;;0.95;0.95;;;;;;;18.30;81.01;100850.47;7342884;19;22125;-54
2022/07/30 03:02:45;;;;;;;1.48;1.20;;;;;;;18.30;81.42;100848.47;7343228;19;20126;-52
2022/07/30 03:05:14;;;;;;;1.10;0.95;;;;;;;18.32;81.26;100854.50;7344261;19;20053;-53
2022/07/30 03:07:45;;;;;;;1.47;1.30;;;;;;;18.31;81.42;100847.31;7346557;19;20126;-56
2022/07/30 03:10:14;;;;;;;1.38;1.27;;;;;;;18.32;81.61;100837.66;7350011;19;21608;-54
2022/07/30 03:12:45;;;;;;;1.50;1.30;;;;;;;18.22;82.29;100838.44;7346735;19;20077;-53
2022/07/30 03:15:13;;;;;;;4.60;1.30;;;;;;;18.22;81.80;100849.66;7349226;19;20022;-55
2022/07/30 03:17:47;;;;;;;1.10;1.10;;;;;;;18.20;81.96;100841.66;7352348;19;20013;-55
2022/07/30 03:20:17;;;;;;;;;;;;;;;18.17;83.10;100847.22;7352530;19;20746;-53
2022/07/30 03:22:49;;;;;;;1.45;1.35;;;;;;;18.14;82.22;100846.03;7349177;19;20030;-53
2022/07/30 03:25:23;;;;;;;3.53;1.27;;;;;;;18.13;82.56;100846.44;7348984;19;20027;-56
2022/07/30 03:27:53;;;;;;;3.08;2.00;;;;;;;18.11;82.42;100838.41;7351087;19;20088;-51
2022/07/30 03:30:22;;;;;;;2.67;1.73;;;;;;;18.09;82.42;100851.19;7348137;19;20019;-55
2022/07/30 03:33:11;;;;;;;2.42;1.30;;;;;;;18.11;82.23;100832.00;7349889;19;21071;-53
2022/07/30 03:35:42;;;;;;;1.42;1.25;;;;;;;18.10;82.71;100836.00;7345601;19;20019;-50
2022/07/30 03:38:14;;;;;;;1.95;1.50;;;;;;;18.09;82.62;100840.00;7346618;19;20018;-52
2022/07/30 03:40:42;;;;;;;;;;;;;;;18.05;83.78;100833.59;7400942;19;20047;-49
2022/07/30 03:43:12;;;;;;;1.83;1.65;;;;;;;18.06;82.42;100833.19;7400441;19;19911;-47
2022/07/30 03:46:01;;;;;;;1.50;1.40;;;;;;;18.05;82.24;100836.38;7401763;19;20024;-56
2022/07/30 03:48:33;;;;;;;1.38;1.20;;;;;;;18.05;82.42;100834.41;7401863;19;20014;-49
2022/07/30 03:51:05;;;;;;;3.85;1.50;;;;;;;18.02;82.70;100831.56;7402873;19;20031;-53
2022/07/30 03:53:33;;;;;;;1.70;1.60;;;;;;;17.99;82.67;100832.34;7402528;19;20010;-49
2022/07/30 03:56:37;;;;;;;3.17;1.55;;;;;;;18.02;82.27;100837.16;7398713;19;20006;-51
2022/07/30 03:59:08;;;;;;;1.88;1.50;;;;;;;18.01;82.41;100833.56;7400229;19;20040;-53
2022/07/30 04:01:41;;;;;;;1.42;1.33;;;;;;;17.99;82.85;100829.56;7399829;19;20033;-52
2022/07/30 04:04:32;;;;;;;1.70;1.60;;;;;;;17.98;82.79;100819.53;7375064;19;21275;-54
2022/07/30 04:07:01;;;;;;;1.58;1.27;;;;;;;17.96;83.23;100819.13;7344099;19;20017;-50
2022/07/30 04:09:29;;;;;;;3.05;1.30;;;;;;;17.94;83.36;100827.94;7349678;19;20022;-54
2022/07/30 04:12:05;;;;;;;1.65;1.02;;;;;;;17.92;83.54;100819.13;7345544;19;20034;-55
2022/07/30 04:14:41;;;;;;;1.38;1.27;;;;;;;17.90;84.52;100820.69;7346448;19;20018;-52
2022/07/30 04:17:18;;;;;;;1.30;1.20;;;;;;;17.88;83.92;100826.69;7402466;19;20014;-50
2022/07/30 04:19:52;;;;;;;2.72;1.33;;;;;;;17.86;83.93;100820.69;7397124;19;20007;-51
2022/07/30 04:22:27;;;;;;;1.70;1.55;;;;;;;17.86;83.71;100825.47;7392720;19;20017;-54
2022/07/30 04:24:56;;;;;;;2.55;1.65;;;;;;;17.83;84.18;100826.25;7344715;19;20041;-57
2022/07/30 04:27:25;;;;;;;2.97;1.80;;;;;;;17.83;84.51;100820.66;7346962;19;20118;-54
2022/07/30 04:29:56;;;;;;;1.98;1.52;;;;;;;17.84;84.15;100823.09;7346447;19;20007;-56
2022/07/30 04:32:26;;;;;;;1.53;1.43;;;;;;;17.85;84.27;100830.28;7342775;19;20022;-53
2022/07/30 04:35:31;;;;;;;2.58;1.63;;;;;;;17.83;84.27;100834.66;7348090;19;20545;-54
2022/07/30 04:38:24;;;;;;;2.67;1.75;;;;;;;17.84;84.63;100827.88;7346203;19;20015;-53
2022/07/30 04:40:52;;;;;;;3.15;1.85;;;;;;;17.83;84.21;100815.06;7343478;19;20025;-52
2022/07/30 04:43:20;;;;;;;1.45;1.35;;;;;;;17.82;84.34;100819.84;7345052;19;20014;-51
2022/07/30 04:45:47;;;;;;;1.60;1.50;;;;;;;17.81;84.81;100823.06;7347096;19;20014;-52
2022/07/30 04:48:16;;;;;;;1.40;1.30;;;;;;;17.79;84.60;100819.84;7375174;19;20477;-55
2022/07/30 04:51:08;;;;;;;2.35;1.15;;;;;;;17.78;84.92;100812.63;7346594;19;20011;-53
2022/07/30 04:53:37;;;;;;;3.47;1.20;;;;;;;17.78;84.58;100827.44;7348816;19;20038;-53
2022/07/30 04:56:05;;;;;;;1.33;1.23;;;;;;;17.83;84.74;100823.47;7346818;19;20039;-53
2022/07/30 04:58:40;;;;;;;1.80;1.48;;;;;;;17.85;84.81;100826.66;7348014;19;20017;-52
2022/07/30 05:01:09;;;;;;;1.52;1.42;;;;;;;17.86;84.57;100828.28;7395847;19;20094;-51
2022/07/30 05:03:39;;;;;;;1.40;1.15;;;;;;;17.89;84.70;100819.09;7398811;19;20021;-50
2022/07/30 05:06:07;;;;;;;2.08;1.88;;;;;;;17.90;85.02;100834.69;7399563;19;20471;-51
2022/07/30 05:08:38;;;;;;;2.25;1.50;;;;;;;17.88;84.70;100823.91;7365764;19;20010;-56
2022/07/30 05:11:14;;;;;;;1.77;1.38;;;;;;;17.89;85.10;100819.09;7359251;19;20015;-53
2022/07/30 05:13:58;;;;;;;1.70;1.50;;;;;;;17.91;84.42;100828.72;7395919;19;20010;-54
2022/07/30 05:16:29;;;;;;;1.67;1.40;;;;;;;17.89;84.75;100821.91;7396118;19;20353;-53
2022/07/30 05:18:59;;;;;;;2.10;1.85;;;;;;;17.91;84.60;100819.50;7399219;19;20014;-51
2022/07/30 05:21:33;;;;;;;3.20;2.05;;;;;;;17.91;85.23;100816.69;7397752;19;20011;-50
2022/07/30 05:24:04;;;;;;;3.33;1.85;;;;;;;17.90;85.02;100827.09;7397713;19;20037;-48
2022/07/30 05:26:38;;;;;;;2.35;1.83;;;;;;;17.90;84.94;100832.69;7393842;19;20013;-48
2022/07/30 05:29:08;;;;;;;2.22;1.50;;;;;;;17.91;84.95;100828.72;7382408;19;20014;-54
2022/07/30 05:31:48;;;;;;;2.20;2.00;;;;;;;17.91;85.06;100823.13;7347822;19;20011;-53
2022/07/30 05:34:17;;;;;;;2.22;2.00;;;;;;;17.90;85.10;100832.69;7347412;19;20021;-52
2022/07/30 05:36:45;;;;;;;1.85;1.75;;;;;;;17.90;84.96;100835.50;7387066;19;20003;-52
2022/07/30 05:39:15;;;;;;;2.03;1.52;;;;;;;17.89;85.04;100822.72;7398897;19;20485;-49
2022/07/30 05:42:02;;;;;;;3.75;2.83;;;;;;;17.91;84.77;100828.72;7362461;19;20033;-51
2022/07/30 05:44:35;;;;;;;3.25;2.00;;;;;;;17.93;84.58;100822.72;7349623;19;20019;-52
2022/07/30 05:47:05;;;;;;;5.35;1.95;;;;;;;17.95;84.64;100828.75;7393660;19;20017;-49
2022/07/30 05:49:33;;;;;;;2.72;2.28;;;;;;;17.94;84.82;100832.72;7397067;19;20011;-51
2022/07/30 05:52:09;;;;;;;2.25;1.58;;;;;;;17.95;84.79;100834.34;7400342;19;20011;-52
2022/07/30 05:54:39;;;;;;;3.13;1.92;;;;;;;17.93;85.05;100842.31;7399031;19;20017;-53
2022/07/30 05:57:28;;;;;;;4.75;1.95;;;;;;;17.92;85.06;100835.13;7349771;19;20011;-55
2022/07/30 05:59:57;;;;;;;4.15;1.88;;;;;;;17.92;84.73;100835.94;7343679;19;20040;-54
2022/07/30 06:02:42;;;;;;;2.47;1.88;;;;;;;17.96;84.91;100836.75;7341098;19;20018;-57
2022/07/30 06:05:39;;;;;;;2.10;1.67;;;;;;;17.98;84.73;100834.34;7349453;19;20053;-54
2022/07/30 06:08:07;;;;;;;2.30;1.90;;;;;;;17.97;84.79;100846.75;7345521;19;20014;-54
2022/07/30 06:10:39;;;;;;;3.72;1.60;;;;;;;17.97;85.23;100837.56;7340164;19;20011;-53
2022/07/30 06:13:10;;;;;;;2.28;1.98;;;;;;;17.99;84.89;100846.34;7378608;19;20011;-50
2022/07/30 06:15:37;;;;;;;4.32;1.42;;;;;;;17.99;84.92;100851.97;7399046;19;20014;-50
2022/07/30 06:18:06;;;;;;;2.38;1.75;;;;;;;17.98;85.05;100834.34;7395019;19;20010;-53
2022/07/30 06:20:50;;;;;;;1.92;1.70;;;;;;;17.94;85.13;100839.13;7397504;19;20358;-50
2022/07/30 06:23:30;;;;;;;2.78;1.48;;;;;;;17.95;84.68;100837.94;7398091;19;20011;-52
2022/07/30 06:26:29;;;;;;;3.70;1.90;;;;;;;17.93;85.35;100828.31;7396849;19;20011;-49
2022/07/30 06:29:17;;;;;;;3.25;1.83;;;;;;;17.96;85.03;100835.94;7363614;19;20015;-54
2022/07/30 06:32:05;;;;;;;1.25;1.10;;;;;;;17.95;84.90;100823.91;7340328;19;20700;-56
2022/07/30 06:34:58;;;;;;;1.98;1.50;;;;;;;17.97;85.05;100827.16;7341283;19;20015;-55
2022/07/30 06:37:51;;;;;;;2.60;1.42;;;;;;;17.97;85.09;100820.75;7338876;19;20014;-53
2022/07/30 06:40:44;;;;;;;2.38;1.80;;;;;;;18.01;84.89;100810.34;7347298;19;20126;-49
2022/07/30 06:43:24;;;;;;;2.55;1.73;;;;;;;17.97;84.77;100812.34;7398199;19;20010;-51
2022/07/30 06:46:29;;;;;;;1.35;1.25;;;;;;;17.93;84.97;100814.31;7401431;19;20074;-52
2022/07/30 06:49:17;;;;;;;1.90;1.23;;;;;;;17.88;85.40;100821.09;7384268;19;20086;-51
2022/07/30 06:59:34;;;;;;;3.05;1.67;;;;;;;17.85;85.70;100816.28;7375006;19;20023;-53
2022/07/30 07:02:30;;;;;;;1.52;1.42;;;;;;;17.86;85.40;100819.88;7394237;19;20022;-54
2022/07/30 07:05:07;;;;;;;1.83;1.10;;;;;;;17.84;85.72;100825.09;7389756;19;20011;-49
2022/07/30 07:07:36;;;;;;;1.40;1.20;;;;;;;17.87;85.65;100821.50;7392304;19;20026;-51
2022/07/30 07:10:13;;;;;;;1.20;1.10;;;;;;;17.87;85.76;100815.91;7390370;19;20668;-54
2022/07/30 07:12:56;;;;;;;10.48;1.60;;;;;;;17.85;86.21;100821.06;7393551;19;20074;-51
2022/07/30 07:15:24;;;;;;;2.67;1.15;;;;;;;17.81;86.94;100828.66;7386377;19;20736;-54
2022/07/30 07:18:07;;;;;;;2.33;1.17;;;;;;;17.80;86.92;100827.03;7374584;19;20041;-52
2022/07/30 07:20:37;;;;;;;3.58;0.95;;;;;;;17.81;86.97;100834.25;7369064;19;20055;-50
2022/07/30 07:23:07;;;;;;;0.90;0.90;;;;;;;17.82;87.02;100825.47;7368631;19;20011;-54
2022/07/30 07:25:40;;;;;;;1.25;0.98;;;;;;;17.85;86.63;100821.06;7374402;19;20461;-53
2022/07/30 07:28:08;;;;;;;0.93;0.82;;;;;;;17.87;87.39;100835.50;7393291;19;20022;-52
2022/07/30 07:30:40;;;;;;;1.58;0.95;;;;;;;17.88;86.99;100828.69;7391823;19;20022;-48
2022/07/30 07:33:09;;;;;;;4.07;1.00;;;;;;;17.90;87.11;100831.88;7394692;19;20015;-50
2022/07/30 07:35:37;;;;;;;2.13;0.88;;;;;;;17.91;87.33;100833.50;7388719;19;20022;-59
2022/07/30 07:38:21;;;;;;;2.05;0.70;;;;;;;17.87;87.20;100827.88;7386131;19;20018;-49
2022/07/30 07:40:50;;;;;;;0.80;0.80;;;;;;;17.90;87.05;100837.50;7389347;19;20545;-58
2022/07/30 07:43:17;;;;;;;2.17;0.77;;;;;;;17.90;87.40;100835.50;7390660;19;20021;-49
2022/07/30 07:45:45;;;;;;;0.88;0.82;;;;;;;17.91;87.57;100841.91;7392273;19;20475;-54
2022/07/30 07:48:13;;;;;;;1.35;0.80;;;;;;;17.93;87.61;100843.13;7391159;19;20018;-49
2022/07/30 07:51:09;;;;;;;1.70;0.80;;;;;;;17.95;87.49;100845.56;7391668;19;20023;-52
2022/07/30 07:53:37;;;;;;;0.70;0.60;;;;;;;17.98;87.74;100839.13;7388857;19;20022;-54
2022/07/30 07:56:07;;;;;;;1.10;0.95;;;;;;;18.03;87.65;100836.00;7391017;19;20010;-52
2022/07/30 07:58:35;;;;;;;2.10;0.80;;;;;;;18.05;87.57;100847.59;7387697;19;20007;-53
2022/07/30 08:01:08;;;;;;;5.60;0.77;;;;;;;18.10;87.89;100847.22;7386379;19;20051;-54
2022/07/30 08:03:55;;;;;;;2.42;0.73;;;;;;;18.09;87.92;100840.00;7389874;19;20579;-50
2022/07/30 08:06:41;;;;;;;1.20;1.10;;;;;;;18.13;87.57;100840.81;7390814;19;20414;-54
2022/07/30 08:09:27;;;;;;;2.28;0.82;;;;;;;18.09;87.32;100846.41;7393523;19;20019;-56
2022/07/30 08:12:26;;;;;;;0.90;0.80;;;;;;;18.10;87.37;100847.22;7389923;19;20519;-52
2022/07/30 08:15:13;;;;;;;0.88;0.63;;;;;;;18.12;87.32;100851.22;7387346;19;20018;-56
2022/07/30 08:18:11;;;;;;;0.80;0.80;;;;;;;18.14;87.31;100854.44;7385989;19;20406;-49
2022/07/30 08:20:50;;;;;;;0.70;0.70;;;;;;;18.11;87.42;100849.59;7389566;19;20022;-57
2022/07/30 08:23:23;;;;;;;0.98;0.70;;;;;;;18.13;87.31;100860.44;7387828;19;20051;-51
2022/07/30 08:25:51;;;;;;;1.92;0.98;;;;;;;18.12;87.33;100858.81;7390314;19;20412;-52
2022/07/30 08:28:18;;;;;;;4.63;1.70;;;;;;;18.13;87.43;100852.03;7388009;19;20010;-53
2022/07/30 08:31:06;;;;;;;0.75;0.70;;;;;;;18.14;87.66;100854.44;7387655;19;20010;-54
2022/07/30 08:33:34;;;;;;;2.78;1.15;;;;;;;18.11;87.79;100855.22;7387315;19;20039;-55
2022/07/30 08:36:03;;;;;;;1.92;0.85;;;;;;;18.12;87.70;100853.22;7388224;19;20019;-55
2022/07/30 08:38:37;;;;;;;1.92;0.90;;;;;;;18.11;87.68;100849.59;7385202;19;20048;-55
2022/07/30 08:41:06;;;;;;;2.22;0.85;;;;;;;18.12;87.91;100848.44;7386337;19;20022;-54
2022/07/30 08:43:35;;;;;;;0.73;0.73;;;;;;;18.16;88.15;100859.66;7386823;19;20010;-51
2022/07/30 08:46:09;;;;;;;2.13;1.10;;;;;;;18.19;87.73;100853.25;7387723;19;20033;-50
2022/07/30 08:48:51;;;;;;;2.22;1.13;;;;;;;18.17;88.01;100850.03;7386305;19;20039;-50
2022/07/30 08:51:21;;;;;;;1.73;1.33;;;;;;;18.21;88.04;100854.44;7387476;19;20047;-51
2022/07/30 08:53:52;;;;;;;1.85;0.90;;;;;;;18.29;87.98;100849.69;7388922;19;20015;-50
2022/07/30 08:56:19;;;;;;;3.15;1.20;;;;;;;18.31;88.03;100850.09;7390768;19;20010;-50
2022/07/30 08:58:48;;;;;;;1.33;1.23;;;;;;;18.34;87.81;100845.69;7387505;19;20014;-54
2022/07/30 09:01:16;;;;;;;1.77;1.35;;;;;;;18.40;88.38;100844.91;7386174;19;20099;-54
2022/07/30 09:03:44;;;;;;;1.83;1.10;;;;;;;18.47;88.12;100842.19;7388753;19;20023;-51
2022/07/30 09:06:13;;;;;;;1.25;1.15;;;;;;;18.52;87.93;100839.00;7388277;19;20011;-49
2022/07/30 09:08:41;;;;;;;2.45;1.33;;;;;;;18.61;88.11;100847.81;7389401;19;20718;-50
2022/07/30 09:11:10;;;;;;;1.25;1.17;;;;;;;18.66;87.82;100847.44;7385891;19;20039;-50
2022/07/30 09:13:47;;;;;;;3.65;1.60;;;;;;;18.68;87.63;100839.44;7386316;19;20021;-53
2022/07/30 09:16:25;;;;;;;1.58;0.93;;;;;;;18.73;87.88;100844.63;7388679;19;20022;-57
2022/07/30 09:18:55;;;;;;;1.50;1.08;;;;;;;18.79;88.07;100850.66;7384359;19;20011;-49
2022/07/30 09:21:27;;;;;;;1.27;1.17;;;;;;;18.83;87.57;100841.03;7389761;19;20015;-51
2022/07/30 09:24:27;;;;;;;1.60;1.15;;;;;;;18.83;87.28;100835.44;7384641;19;20022;-51
2022/07/30 09:27:13;;;;;;;1.73;1.17;;;;;;;18.88;87.28;100853.09;7387627;19;20014;-48
2022/07/30 09:29:59;;;;;;;2.20;1.42;;;;;;;18.89;86.84;100852.69;7387637;19;20022;-54
2022/07/30 09:32:54;;;;;;;1.92;1.25;;;;;;;18.97;86.89;100850.69;7388621;19;20019;-49
2022/07/30 09:36:00;;;;;;;1.55;1.00;;;;;;;19.05;86.82;100853.09;7381477;19;20018;-56
2022/07/30 09:38:50;;;;;;;1.23;1.10;;;;;;;19.11;86.61;100850.69;7375863;19;20043;-50
2022/07/30 09:41:53;;;;;;;2.33;1.20;;;;;;;19.09;86.47;100855.91;7374879;19;20460;-55
2022/07/30 09:44:26;;;;;;;1.35;1.15;;;;;;;19.13;86.38;100853.91;7372637;19;20043;-51
2022/07/30 09:46:56;;;;;;;2.97;1.20;;;;;;;19.14;86.42;100861.13;7387751;19;20582;-51
2022/07/30 09:49:29;;;;;;;3.08;1.23;;;;;;;19.12;86.35;100864.31;7385236;19;20015;-50
2022/07/30 09:51:57;;;;;;;3.42;1.50;;;;;;;19.16;86.16;100869.94;7388103;19;20018;-49
2022/07/30 09:55:00;;;;;;;1.38;1.27;;;;;;;19.21;86.62;100872.34;7386464;19;20011;-50
2022/07/30 09:57:30;;;;;;;2.30;1.50;;;;;;;19.28;86.18;100864.72;7383121;19;20014;-47
2022/07/30 10:00:22;;;;;;;3.83;1.60;;;;;;;19.34;86.02;100865.94;7388618;19;20007;-47
2022/07/30 10:03:20;;;;;;;2.08;1.30;;;;;;;19.44;85.85;100865.16;7384398;19;20493;-48
2022/07/30 10:06:43;;;;;;;1.63;1.50;;;;;;;19.51;85.40;100867.16;7387439;19;20011;-55
2022/07/30 10:09:25;;;;;;;1.65;1.33;;;;;;;19.54;85.02;100863.53;7384819;19;20035;-52
2022/07/30 10:11:58;;;;;;;1.60;1.50;;;;;;;19.63;84.64;100866.72;7384814;19;20372;-53
2022/07/30 10:14:32;;;;;;;2.38;1.95;;;;;;;19.73;84.73;100876.34;7383783;19;20040;-53
2022/07/30 10:17:09;;;;;;;2.25;1.75;;;;;;;19.79;84.48;100864.28;7382593;19;20018;-56
2022/07/30 10:19:42;;;;;;;1.48;1.38;;;;;;;19.82;83.99;100868.31;7385163;19;20475;-51
2022/07/30 10:22:43;;;;;;;2.13;1.75;;;;;;;19.83;83.57;100869.91;7382468;19;20010;-49
2022/07/30 10:25:36;;;;;;;2.88;2.22;;;;;;;19.86;83.37;100874.69;7386241;19;20010;-50
2022/07/30 10:28:40;;;;;;;2.40;2.10;;;;;;;20.09;83.72;100865.81;7386282;19;20014;-54
2022/07/30 10:31:08;;;;;;;2.40;2.20;;;;;;;20.26;83.15;100871.41;7385429;19;20140;-50
2022/07/30 10:33:56;;;;;;;5.22;2.30;;;;;;;20.39;82.18;100883.78;7385480;19;20025;-52
2022/07/30 10:36:25;;;;;;;2.15;1.83;;;;;;;20.36;81.22;100881.00;7385119;19;20018;-49
2022/07/30 10:38:53;;;;;;;3.05;1.92;;;;;;;20.36;81.06;100878.97;7383857;19;20091;-47
2022/07/30 10:41:51;;;;;;;2.33;1.98;;;;;;;20.32;80.21;100874.59;7388884;19;20021;-49
2022/07/30 10:44:32;;;;;;;4.00;2.45;;;;;;;20.30;80.56;100880.63;7383402;19;20550;-48
2022/07/30 10:47:04;;;;;;;2.55;2.10;;;;;;;20.30;80.75;100882.63;7385113;19;20014;-47
2022/07/30 10:49:36;;;;;;;10.35;4.65;;;;;;;20.26;80.49;100873.41;7383993;19;20479;-55
2022/07/30 10:52:10;;;;;;;3.63;2.25;;;;;;;20.18;80.17;100872.59;7385002;19;20015;-54
2022/07/30 10:54:41;;;;;;;4.03;2.72;;;;;;;20.09;80.14;100868.63;7385807;19;20011;-53
2022/07/30 10:57:12;;;;;;;3.85;2.20;;;;;;;20.16;80.51;100877.03;7385028;19;20118;-50
2022/07/30 11:00:08;;;;;;;2.80;2.53;;;;;;;20.50;80.16;100873.28;7388032;19;20011;-49
2022/07/30 11:02:36;;;;;;;3.55;2.10;;;;;;;20.76;80.16;100866.31;7384726;19;20015;-56
2022/07/30 11:05:34;;;;;;;2.65;2.45;;;;;;;20.83;78.67;100866.28;7384441;19;20010;-49
2022/07/30 11:08:39;;;;;;;3.40;2.20;;;;;;;20.71;78.12;100863.94;7383825;19;20018;-50
2022/07/30 11:11:21;;;;;;;6.18;3.17;;;;;;;20.72;78.42;100856.28;7384850;19;20022;-48
2022/07/30 11:14:08;;;;;;;4.45;2.42;;;;;;;20.75;78.49;100875.19;7384290;19;20479;-48
2022/07/30 11:16:39;;;;;;;2.47;2.28;;;;;;;20.78;77.96;100865.91;7384205;19;20434;-48
2022/07/30 11:19:17;;;;;;;2.35;2.15;;;;;;;20.83;77.90;100862.66;7381831;19;20364;-53
2022/07/30 11:22:27;;;;;;;4.30;2.40;;;;;;;20.85;77.27;100868.69;7384020;19;20010;-52
2022/07/30 11:24:56;;;;;;;3.08;2.60;;;;;;;20.85;77.59;100869.47;7383874;19;20007;-47
2022/07/30 11:27:37;;;;;;;3.70;2.80;;;;;;;20.88;77.20;100871.47;7383843;19;20370;-52
2022/07/30 11:30:17;;;;;;;5.38;3.13;;;;;;;20.88;77.17;100868.66;7389992;19;20010;-48
2022/07/30 11:32:45;;;;;;;4.07;2.42;;;;;;;20.87;76.91;100875.50;7393283;19;20074;-57
2022/07/30 11:35:22;;;;;;;2.50;2.30;;;;;;;20.91;77.10;100873.47;7390692;19;20458;-49
2022/07/30 11:38:03;;;;;;;3.15;2.47;;;;;;;20.96;76.77;100875.84;7390900;19;20051;-49
2022/07/30 11:40:55;;;;;;;3.17;2.87;;;;;;;21.08;76.79;100880.19;7391898;19;20029;-52
2022/07/30 11:43:24;;;;;;;2.88;2.60;;;;;;;21.22;76.39;100866.81;7390907;19;20014;-49
2022/07/30 11:46:07;;;;;;;3.92;2.78;;;;;;;21.31;75.91;100874.00;7389463;19;20018;-53
2022/07/30 11:48:41;;;;;;;2.95;2.45;;;;;;;21.32;75.80;100879.22;7391597;19;20364;-49
2022/07/30 11:51:10;;;;;;;3.30;2.40;;;;;;;21.32;75.55;100879.22;7391268;19;20010;-53
2022/07/30 11:53:38;;;;;;;3.85;2.45;;;;;;;21.37;75.47;100873.13;7390583;19;20453;-49
2022/07/30 11:56:08;;;;;;;6.70;3.50;;;;;;;21.48;75.63;100878.66;7394810;19;20023;-54
2022/07/30 11:58:40;;;;;;;3.47;2.83;;;;;;;21.54;75.41;100877.00;7390454;19;20020;-54
2022/07/30 12:01:12;;;;;;;6.80;2.60;;;;;;;21.53;74.67;100876.19;7389776;19;20475;-50
2022/07/30 12:03:42;;;;;;;2.85;2.60;;;;;;;21.54;74.45;100865.75;7390096;19;20022;-49
2022/07/30 12:06:18;;;;;;;2.13;1.90;;;;;;;21.74;74.24;100869.56;7391643;19;20025;-52
2022/07/30 12:08:48;;;;;;;2.70;2.30;;;;;;;21.96;74.02;100865.34;7390873;19;20025;-51
2022/07/30 12:11:19;;;;;;;4.00;2.15;;;;;;;22.09;73.53;100863.56;7390286;19;20483;-50
2022/07/30 12:13:58;;;;;;;2.10;1.90;;;;;;;22.16;73.04;100869.13;7390856;19;20393;-49
2022/07/30 12:16:28;;;;;;;2.25;1.80;;;;;;;22.05;73.29;100862.81;7390978;19;20026;-49
2022/07/30 12:19:05;;;;;;;2.55;2.20;;;;;;;21.91;72.42;100874.25;7388427;19;20018;-48
2022/07/30 12:21:36;;;;;;;3.85;2.10;;;;;;;21.83;73.09;100861.41;7393067;19;20015;-49
2022/07/30 12:24:06;;;;;;;2.33;1.90;;;;;;;21.73;73.08;100863.16;7391528;19;20013;-50